Time;durP1;ratioP1;P1;durP2;ratioP2;P2;SDS_P1;SDS_P2;PMS_P1;PMS_P2;Temp;Humidity;BMP_temperature;BMP_pressure;BME280_temperature;BME280_humidity;BME280_pressure;Samples;Min_cycle;Max_cycle;Signal;HPM_P1;HPM_P2
2022/08/06 00:01:13;;;;;;;11.93;7.10;;;;;;;21.80;67.95;94569.19;6301984;22;20164;-76
2022/08/06 00:03:40;;;;;;;12.98;7.90;;;;;;;21.72;69.31;94564.56;6301230;22;20198;-76
2022/08/06 00:06:08;;;;;;;9.65;7.72;;;;;;;21.60;69.68;94558.94;6300331;22;20179;-76
2022/08/06 00:08:35;;;;;;;11.25;8.20;;;;;;;21.61;69.59;94571.09;6301854;22;20211;-76
2022/08/06 00:11:02;;;;;;;10.75;7.95;;;;;;;21.48;69.84;94567.31;6302018;22;20164;-76
2022/08/06 00:13:29;;;;;;;15.15;8.20;;;;;;;21.54;70.42;94576.75;6302035;22;20171;-76
2022/08/06 00:15:55;;;;;;;10.68;7.53;;;;;;;21.55;70.49;94577.53;6300275;22;20172;-76
2022/08/06 00:18:22;;;;;;;9.48;7.70;;;;;;;21.54;70.95;94575.94;6301902;22;20172;-77
2022/08/06 00:20:49;;;;;;;14.20;9.77;;;;;;;21.53;71.00;94572.50;6301573;22;20175;-77
2022/08/06 00:23:18;;;;;;;13.20;8.32;;;;;;;21.60;71.21;94578.22;6302027;22;20199;-76
2022/08/06 00:25:46;;;;;;;11.73;8.55;;;;;;;21.67;70.48;94581.31;6301114;22;20163;-75
2022/08/06 00:28:12;;;;;;;9.07;7.95;;;;;;;21.74;69.91;94575.63;6300638;22;20204;-75
2022/08/06 00:30:39;;;;;;;11.73;7.13;;;;;;;21.73;68.43;94580.13;6301571;22;20164;-75
2022/08/06 00:33:06;;;;;;;9.85;6.50;;;;;;;21.62;68.47;94577.94;6302381;22;20160;-76
2022/08/06 00:35:33;;;;;;;7.75;6.70;;;;;;;21.52;68.86;94586.84;6300660;22;20172;-75
2022/08/06 00:38:00;;;;;;;8.13;6.78;;;;;;;21.41;69.20;94588.81;6299515;22;20528;-74
2022/08/06 00:40:30;;;;;;;7.28;6.43;;;;;;;21.20;69.71;94587.56;6301779;22;20168;-74
2022/08/06 00:42:58;;;;;;;9.07;6.53;;;;;;;21.03;70.77;94583.78;6301055;22;20188;-75
2022/08/06 00:45:25;;;;;;;10.82;7.65;;;;;;;20.89;72.67;94575.78;6301629;22;20627;-74
2022/08/06 00:47:52;;;;;;;11.45;7.50;;;;;;;20.94;72.87;94584.44;6300487;22;20343;-75
2022/08/06 00:50:19;;;;;;;14.95;7.68;;;;;;;20.95;72.75;94585.22;6300906;22;20171;-75
2022/08/06 00:52:46;;;;;;;10.15;7.28;;;;;;;20.96;73.57;94578.84;6301532;22;20164;-76
2022/08/06 00:55:13;;;;;;;11.00;7.43;;;;;;;20.94;72.62;94586.28;6301901;22;20168;-75
2022/08/06 00:57:42;;;;;;;11.27;7.78;;;;;;;20.93;72.95;94582.84;6300881;22;20164;-75
2022/08/06 01:00:09;;;;;;;14.95;7.10;;;;;;;20.97;72.53;94582.28;6300435;22;20616;-75
2022/08/06 01:02:37;;;;;;;8.05;6.35;;;;;;;21.13;70.84;94581.81;6301147;22;20199;-76
2022/08/06 01:05:04;;;;;;;10.02;6.70;;;;;;;21.26;70.24;94591.69;6302170;22;20172;-75
2022/08/06 01:07:31;;;;;;;8.93;7.07;;;;;;;21.33;71.27;94586.81;6301365;22;20172;-75
2022/08/06 01:09:58;;;;;;;7.97;7.18;;;;;;;21.28;71.04;94584.25;6299245;22;20199;-74
2022/08/06 01:12:26;;;;;;;9.40;7.22;;;;;;;21.27;72.45;94580.03;6300525;22;20194;-75
2022/08/06 01:14:54;;;;;;;14.25;8.13;;;;;;;21.22;71.41;94581.97;6300917;22;20172;-75
2022/08/06 01:17:27;;;;;;;13.75;8.60;;;;;;;21.19;71.91;94575.41;6301460;22;20164;-75
2022/08/06 01:20:03;;;;;;;15.27;7.82;;;;;;;21.10;72.73;94574.44;6299843;22;20223;-76
2022/08/06 01:23:01;;;;;;;14.60;8.10;;;;;;;21.05;73.66;94579.78;6300776;22;20187;-75
2022/08/06 01:25:48;;;;;;;13.25;8.45;;;;;;;21.01;73.46;94578.78;6301149;22;20164;-75
2022/08/06 01:28:24;;;;;;;14.95;8.68;;;;;;;21.03;73.01;94581.16;6299926;22;20160;-75
2022/08/06 01:30:57;;;;;;;14.18;9.02;;;;;;;20.95;73.22;94569.38;6302828;22;20483;-75
2022/08/06 01:33:28;;;;;;;16.13;8.93;;;;;;;20.93;73.79;94571.47;6303703;22;20160;-75
2022/08/06 01:36:00;;;;;;;13.35;8.80;;;;;;;20.89;74.33;94570.50;6301548;22;20167;-75
2022/08/06 01:38:32;;;;;;;15.43;9.10;;;;;;;20.82;73.92;94572.69;6303393;22;20490;-76
2022/08/06 01:41:02;;;;;;;10.48;8.80;;;;;;;20.90;74.04;94572.03;6302810;22;20236;-76
2022/08/06 01:43:33;;;;;;;14.75;8.73;;;;;;;20.91;73.96;94566.50;6303240;22;20274;-76
2022/08/06 01:46:01;;;;;;;13.13;9.38;;;;;;;20.85;73.40;94569.47;6301947;22;20164;-76
2022/08/06 01:48:30;;;;;;;14.05;8.27;;;;;;;20.77;73.17;94570.91;6304045;22;20164;-76
2022/08/06 01:51:01;;;;;;;17.30;9.10;;;;;;;20.71;74.01;94577.31;6303282;22;20168;-76
2022/08/06 01:53:31;;;;;;;16.20;8.93;;;;;;;20.68;73.66;94575.25;6303257;22;20187;-77
2022/08/06 01:56:03;;;;;;;12.23;8.55;;;;;;;20.55;73.82;94569.84;6301411;22;20255;-77
2022/08/06 01:58:35;;;;;;;12.25;8.65;;;;;;;20.53;74.42;94572.75;6303823;22;20165;-77
2022/08/06 02:01:07;;;;;;;11.65;8.63;;;;;;;20.58;74.54;94574.53;6303951;22;20153;-76
2022/08/06 02:03:38;;;;;;;12.23;8.40;;;;;;;20.54;74.59;94563.00;6303192;22;20176;-77
2022/08/06 02:06:07;;;;;;;9.32;8.07;;;;;;;20.46;73.94;94553.81;6301861;22;20168;-77
2022/08/06 02:08:37;;;;;;;14.48;7.88;;;;;;;20.38;74.06;94554.44;6302943;22;20540;-76
2022/08/06 02:11:07;;;;;;;9.20;8.13;;;;;;;20.34;74.22;94550.81;6303704;22;20297;-77
2022/08/06 02:13:37;;;;;;;10.93;7.53;;;;;;;20.42;74.82;94546.75;6302957;22;20218;-77
2022/08/06 02:16:08;;;;;;;10.85;7.65;;;;;;;20.40;74.47;94551.53;6301795;22;20721;-76
2022/08/06 02:18:38;;;;;;;10.75;8.10;;;;;;;20.51;74.34;94553.78;6303554;22;20156;-76
2022/08/06 02:21:09;;;;;;;13.20;7.95;;;;;;;20.59;74.03;94544.44;6303022;22;20623;-76
2022/08/06 02:23:36;;;;;;;10.82;7.68;;;;;;;20.56;74.52;94547.66;6302023;22;20179;-77
2022/08/06 02:26:05;;;;;;;11.52;7.78;;;;;;;20.56;74.73;94542.38;6301674;22;20168;-77
2022/08/06 02:28:34;;;;;;;10.98;7.88;;;;;;;20.46;74.54;94543.25;6303891;22;20221;-77
2022/08/06 02:31:02;;;;;;;8.88;7.60;;;;;;;20.42;75.73;94542.25;6303450;22;20172;-75
2022/08/06 02:33:29;;;;;;;14.55;8.05;;;;;;;20.33;75.23;94539.47;6303278;22;20161;-77
2022/08/06 02:36:03;;;;;;;12.52;8.35;;;;;;;20.37;76.26;94543.09;6301730;22;20169;-76
2022/08/06 02:38:36;;;;;;;10.23;7.45;;;;;;;20.31;75.42;94543.44;6303518;22;20595;-76
2022/08/06 02:41:16;;;;;;;9.85;7.38;;;;;;;20.33;74.84;94554.50;6303584;22;20378;-77
2022/08/06 02:43:50;;;;;;;12.07;7.65;;;;;;;20.33;75.81;94551.88;6301616;22;20176;-77
2022/08/06 02:46:26;;;;;;;12.85;7.63;;;;;;;20.29;74.24;94540.28;6302639;22;20160;-77
2022/08/06 02:48:59;;;;;;;10.38;7.68;;;;;;;20.12;74.77;94540.69;6303035;22;20155;-76
2022/08/06 02:51:31;;;;;;;8.43;7.57;;;;;;;20.09;75.45;94538.63;6303949;22;20156;-77
2022/08/06 02:54:03;;;;;;;9.07;7.57;;;;;;;20.19;75.49;94543.81;6301808;22;20476;-77
2022/08/06 02:56:32;;;;;;;10.55;7.22;;;;;;;20.27;75.16;94547.69;6303364;22;20160;-76
2022/08/06 02:59:02;;;;;;;10.32;7.72;;;;;;;20.23;74.66;94544.81;6303194;22;20172;-76
2022/08/06 03:01:33;;;;;;;13.50;7.70;;;;;;;20.24;75.02;94556.16;6303351;22;20168;-77
2022/08/06 03:04:02;;;;;;;10.32;7.53;;;;;;;20.15;75.88;94555.19;6301473;22;20827;-77
2022/08/06 03:06:35;;;;;;;9.48;7.35;;;;;;;20.04;76.34;94553.72;6303211;22;20616;-76
2022/08/06 03:09:04;;;;;;;11.90;8.93;;;;;;;19.89;76.88;94556.50;6302220;22;20200;-77
2022/08/06 03:11:34;;;;;;;10.40;7.85;;;;;;;19.83;77.43;94555.75;6302200;22;20172;-78
2022/08/06 03:14:02;;;;;;;13.60;8.15;;;;;;;19.78;78.22;94558.44;6302081;22;20163;-78
2022/08/06 03:16:35;;;;;;;21.77;8.48;;;;;;;19.87;78.81;94556.00;6303438;22;20634;-78
2022/08/06 03:19:02;;;;;;;14.90;8.40;;;;;;;19.91;78.66;94551.75;6303366;22;20622;-77
2022/08/06 03:21:31;;;;;;;10.25;8.18;;;;;;;19.95;79.01;94561.44;6303455;22;20164;-78
2022/08/06 03:24:00;;;;;;;11.80;8.57;;;;;;;19.97;78.99;94556.69;6301271;22;21146;-77
2022/08/06 03:26:28;;;;;;;11.65;7.97;;;;;;;19.99;79.05;94564.31;6303047;22;20165;-77
2022/08/06 03:28:57;;;;;;;10.98;8.70;;;;;;;19.94;79.14;94561.75;6302530;22;20670;-77
2022/08/06 03:31:24;;;;;;;13.50;9.07;;;;;;;20.00;79.32;94556.13;6303107;22;20168;-77
2022/08/06 03:33:53;;;;;;;11.57;8.60;;;;;;;20.06;78.32;94557.66;6301056;22;20164;-76
2022/08/06 03:36:21;;;;;;;15.68;8.73;;;;;;;20.13;77.98;94557.31;6301857;22;20172;-76
2022/08/06 03:38:54;;;;;;;11.50;8.25;;;;;;;20.17;77.34;94556.47;6302323;22;20165;-77
2022/08/06 03:41:21;;;;;;;18.15;8.60;;;;;;;20.23;77.37;94558.00;6302300;22;20148;-77
2022/08/06 03:43:48;;;;;;;10.88;8.15;;;;;;;20.24;77.24;94559.59;6300571;22;20192;-77
2022/08/06 03:46:19;;;;;;;18.10;8.73;;;;;;;20.27;77.20;94561.69;6300666;22;20635;-77
2022/08/06 03:48:47;;;;;;;14.23;8.88;;;;;;;20.30;77.34;94562.97;6301586;22;20217;-77
2022/08/06 03:51:22;;;;;;;13.27;8.68;;;;;;;20.33;76.22;94559.78;6301997;22;20529;-77
2022/08/06 03:53:52;;;;;;;16.40;8.70;;;;;;;20.29;75.65;94561.41;6299926;22;20159;-77
2022/08/06 03:56:24;;;;;;;13.50;8.95;;;;;;;20.20;75.82;94560.44;6301112;22;20167;-75
2022/08/06 03:58:53;;;;;;;15.07;8.80;;;;;;;20.11;76.08;94565.53;6301743;22;20160;-74
2022/08/06 04:01:24;;;;;;;20.83;9.45;;;;;;;20.07;76.53;94571.63;6302166;22;20168;-75
2022/08/06 04:03:52;;;;;;;14.85;8.98;;;;;;;20.03;77.24;94568.00;6300541;22;20187;-75
2022/08/06 04:06:22;;;;;;;15.18;8.80;;;;;;;20.00;76.88;94560.63;6302281;22;20705;-74
2022/08/06 04:08:50;;;;;;;10.45;7.88;;;;;;;20.04;76.50;94578.25;6301929;22;20188;-74
2022/08/06 04:11:19;;;;;;;20.13;8.50;;;;;;;20.08;76.53;94579.28;6301508;22;20247;-75
2022/08/06 04:13:47;;;;;;;17.10;8.40;;;;;;;20.14;76.49;94588.72;6300932;22;20167;-75
2022/08/06 04:16:15;;;;;;;16.27;8.80;;;;;;;20.14;76.67;94577.38;6300923;22;20205;-75
2022/08/06 04:18:44;;;;;;;13.85;7.97;;;;;;;20.12;76.91;94575.00;6301417;22;20176;-75
2022/08/06 04:21:16;;;;;;;15.02;8.23;;;;;;;20.14;76.67;94583.47;6301666;22;20171;-75
2022/08/06 04:23:44;;;;;;;12.00;7.88;;;;;;;20.19;76.67;94582.59;6299743;22;20697;-75
2022/08/06 04:26:14;;;;;;;14.60;7.63;;;;;;;20.23;75.51;94583.63;6300331;22;20180;-75
2022/08/06 04:28:44;;;;;;;12.75;8.32;;;;;;;20.32;74.68;94593.31;6301589;22;20171;-74
2022/08/06 04:31:12;;;;;;;12.23;8.68;;;;;;;20.29;75.01;94582.53;6302490;22;20176;-76
2022/08/06 04:33:41;;;;;;;14.95;8.90;;;;;;;20.40;73.99;94584.00;6301522;22;20164;-75
2022/08/06 04:36:09;;;;;;;10.65;8.82;;;;;;;20.40;74.43;94594.56;6300512;22;20172;-76
2022/08/06 04:38:37;;;;;;;15.55;8.60;;;;;;;20.46;75.02;94592.66;6301845;22;20164;-76
2022/08/06 04:41:06;;;;;;;13.05;8.60;;;;;;;20.52;74.09;94592.31;6301941;22;20172;-76
2022/08/06 04:43:34;;;;;;;12.57;8.70;;;;;;;20.53;74.29;94596.53;6301449;22;20198;-76
2022/08/06 04:46:01;;;;;;;11.27;8.77;;;;;;;20.52;74.21;94597.59;6300268;22;20171;-75
2022/08/06 04:48:28;;;;;;;10.63;8.45;;;;;;;20.77;73.08;94597.31;6302290;22;20168;-76
2022/08/06 04:50:56;;;;;;;13.43;9.13;;;;;;;20.81;73.69;94603.59;6301471;22;20235;-76
2022/08/06 04:53:23;;;;;;;19.67;9.05;;;;;;;20.93;73.41;94597.91;6301985;22;20164;-76
2022/08/06 04:55:49;;;;;;;13.88;9.35;;;;;;;20.96;73.37;94597.34;6300495;22;20171;-75
2022/08/06 04:58:18;;;;;;;18.08;9.48;;;;;;;20.94;72.87;94605.56;6301495;22;20164;-75
2022/08/06 05:00:47;;;;;;;18.27;9.98;;;;;;;21.12;71.63;94608.56;6301482;22;20174;-75
2022/08/06 05:03:14;;;;;;;19.10;8.75;;;;;;;21.20;69.92;94613.19;6301152;22;20168;-74
2022/08/06 05:05:47;;;;;;;10.80;8.45;;;;;;;21.23;68.65;94608.13;6301670;22;20623;-75
2022/08/06 05:08:14;;;;;;;9.18;7.68;;;;;;;21.28;68.29;94609.91;6302900;22;20207;-72
2022/08/06 05:10:56;;;;;;;9.52;7.90;;;;;;;21.25;68.19;94610.47;6303912;22;20153;-73
2022/08/06 05:13:27;;;;;;;12.68;8.20;;;;;;;21.21;68.11;94610.25;6303774;22;20153;-73
2022/08/06 05:15:58;;;;;;;11.05;7.80;;;;;;;21.21;69.09;94615.53;6302298;22;20161;-73
2022/08/06 05:18:29;;;;;;;9.35;8.10;;;;;;;21.28;68.63;94613.34;6303320;22;20638;-73
2022/08/06 05:20:58;;;;;;;9.75;8.00;;;;;;;21.32;68.53;94608.28;6302873;22;20168;-74
2022/08/06 05:23:30;;;;;;;11.43;8.40;;;;;;;21.43;67.80;94617.63;6303683;22;20168;-74
2022/08/06 05:25:57;;;;;;;8.75;7.70;;;;;;;21.50;67.62;94615.41;6301692;22;20164;-73
2022/08/06 05:28:25;;;;;;;10.18;7.70;;;;;;;21.53;67.82;94620.13;6303567;22;20164;-73
2022/08/06 05:30:53;;;;;;;12.75;8.60;;;;;;;21.61;67.00;94622.16;6303495;22;20164;-73
2022/08/06 05:33:24;;;;;;;18.88;9.10;;;;;;;21.64;67.11;94610.19;6303579;22;20229;-72
2022/08/06 05:35:51;;;;;;;11.35;8.30;;;;;;;21.64;67.33;94612.84;6301469;22;20221;-73
2022/08/06 05:38:18;;;;;;;12.98;8.50;;;;;;;21.28;67.08;94557.03;6302282;22;20175;-73
2022/08/06 05:40:44;;;;;;;15.30;8.55;;;;;;;21.75;67.40;94612.41;6302218;22;20522;-73
2022/08/06 05:43:11;;;;;;;13.80;8.45;;;;;;;21.85;66.09;94619.38;6303164;22;20171;-73
2022/08/06 05:45:42;;;;;;;9.45;8.15;;;;;;;21.88;66.13;94621.47;6302611;22;20164;-74
2022/08/06 05:48:10;;;;;;;12.68;8.50;;;;;;;21.90;65.08;94619.34;6301275;22;20152;-73
2022/08/06 05:50:44;;;;;;;10.02;7.88;;;;;;;21.94;65.02;94622.97;6301810;22;20168;-73
2022/08/06 05:53:16;;;;;;;10.82;8.60;;;;;;;21.93;64.80;94624.81;6302428;22;20151;-73
2022/08/06 05:55:49;;;;;;;12.40;9.00;;;;;;;22.00;64.93;94619.97;6301051;22;20159;-74
2022/08/06 05:58:22;;;;;;;11.43;8.27;;;;;;;22.05;63.91;94611.94;6301527;22;20192;-74
2022/08/06 06:00:52;;;;;;;13.05;8.80;;;;;;;22.10;63.52;94616.38;6301851;22;20164;-74
2022/08/06 06:03:22;;;;;;;12.27;7.88;;;;;;;22.19;63.20;94605.91;6302073;22;20157;-72
2022/08/06 06:05:50;;;;;;;9.07;7.93;;;;;;;22.35;63.66;94602.69;6300431;22;20551;-73
2022/08/06 06:08:18;;;;;;;9.05;8.05;;;;;;;22.46;63.64;94612.00;6300594;22;20203;-74
2022/08/06 06:10:46;;;;;;;10.07;7.95;;;;;;;22.54;63.76;94613.97;6301445;22;20168;-75
2022/08/06 06:13:13;;;;;;;12.15;7.88;;;;;;;22.52;64.02;94605.56;6302358;22;20165;-75
2022/08/06 06:15:45;;;;;;;10.25;7.57;;;;;;;22.55;63.61;94602.31;6300743;22;20165;-76
2022/08/06 06:18:32;;;;;;;13.77;7.45;;;;;;;22.58;63.94;94606.25;6300733;22;20156;-78
2022/08/06 06:21:06;;;;;;;10.02;7.68;;;;;;;22.64;64.79;94602.44;6301332;22;20156;-74
2022/08/06 06:23:41;;;;;;;10.25;7.40;;;;;;;22.73;63.91;94599.91;6301326;22;20162;-74
2022/08/06 06:26:16;;;;;;;11.48;7.60;;;;;;;22.79;64.11;94596.06;6301876;22;20156;-78
2022/08/06 06:28:56;;;;;;;11.88;7.65;;;;;;;23.17;62.71;94606.13;6301726;22;20494;-77
2022/08/06 06:31:29;;;;;;;8.98;7.38;;;;;;;23.30;62.49;94606.41;6302009;22;20160;-77
2022/08/06 06:34:05;;;;;;;20.10;8.85;;;;;;;23.40;61.34;94599.06;6299879;22;20580;-77
2022/08/06 06:36:43;;;;;;;13.65;7.55;;;;;;;23.50;60.85;94612.09;6301805;22;20155;-76
2022/08/06 06:39:19;;;;;;;13.52;6.93;;;;;;;23.52;60.24;94596.66;6301599;22;20164;-77
2022/08/06 06:41:55;;;;;;;9.88;7.47;;;;;;;23.53;60.58;94589.47;6301104;22;20694;-81
2022/08/06 06:44:30;;;;;;;12.95;7.20;;;;;;;23.63;59.93;94590.03;6302578;22;20190;-83
2022/08/06 06:47:02;;;;;;;10.18;7.00;;;;;;;23.72;59.75;94593.53;6303173;22;20167;-84
2022/08/06 06:49:38;;;;;;;12.30;7.32;;;;;;;23.78;59.49;94588.88;6304388;22;20615;-86
2022/08/06 06:52:11;;;;;;;13.30;7.32;;;;;;;23.82;59.31;94584.53;6303648;22;20867;-85
2022/08/06 06:54:42;;;;;;;10.25;7.70;;;;;;;23.87;59.27;94594.25;6301303;22;20172;-75
2022/08/06 06:57:13;;;;;;;11.35;7.82;;;;;;;23.84;58.27;94590.31;6301706;22;20218;-73
2022/08/06 06:59:44;;;;;;;15.15;7.60;;;;;;;23.89;58.32;94586.78;6301051;22;20566;-73
2022/08/06 07:02:17;;;;;;;10.43;7.60;;;;;;;23.87;58.56;94583.63;6301184;22;20156;-79
2022/08/06 07:04:46;;;;;;;14.07;7.32;;;;;;;23.86;58.04;94590.03;6302351;22;20200;-73
2022/08/06 07:07:14;;;;;;;12.52;6.88;;;;;;;23.88;58.01;94591.31;6302771;22;20179;-73
2022/08/06 07:09:50;;;;;;;10.75;7.28;;;;;;;23.93;58.12;94579.75;6300138;22;20193;-71
2022/08/06 07:12:21;;;;;;;10.52;7.90;;;;;;;24.00;57.58;94583.56;6300400;22;20756;-75
2022/08/06 07:14:51;;;;;;;14.32;7.30;;;;;;;24.07;58.64;94581.25;6301675;22;20252;-74
2022/08/06 07:17:19;;;;;;;12.23;6.82;;;;;;;24.18;58.07;94577.28;6301940;22;20169;-76
2022/08/06 07:19:49;;;;;;;11.38;7.40;;;;;;;24.36;57.12;94582.72;6300936;22;20218;-76
2022/08/06 07:22:16;;;;;;;10.48;7.47;;;;;;;24.55;56.41;94577.94;6301478;22;20779;-76
2022/08/06 07:24:44;;;;;;;13.13;7.50;;;;;;;24.66;55.94;94576.56;6301630;22;20199;-76
2022/08/06 07:27:13;;;;;;;10.88;6.80;;;;;;;24.75;56.02;94572.06;6302819;22;20191;-76
2022/08/06 07:29:41;;;;;;;11.45;7.55;;;;;;;24.73;55.97;94564.38;6301528;22;20204;-76
2022/08/06 07:32:10;;;;;;;13.38;7.53;;;;;;;24.83;56.10;94569.47;6301016;22;20172;-75
2022/08/06 07:34:37;;;;;;;11.15;7.53;;;;;;;24.87;55.99;94561.66;6302181;22;20160;-76
2022/08/06 07:37:07;;;;;;;12.38;8.15;;;;;;;24.94;55.74;94559.31;6302461;22;20172;-76
2022/08/06 07:39:39;;;;;;;9.90;7.10;;;;;;;25.04;54.87;94561.69;6302346;22;20167;-77
2022/08/06 07:42:09;;;;;;;9.80;6.70;;;;;;;25.14;55.38;94557.94;6300549;22;20217;-75
2022/08/06 07:44:40;;;;;;;12.02;7.10;;;;;;;25.29;54.79;94555.63;6302154;22;20195;-77
2022/08/06 07:47:08;;;;;;;13.15;7.00;;;;;;;25.43;55.50;94547.47;6302792;22;20452;-77
2022/08/06 07:49:40;;;;;;;9.85;7.03;;;;;;;25.50;55.16;94552.38;6302054;22;20164;-76
2022/08/06 07:52:13;;;;;;;12.60;6.90;;;;;;;25.62;54.14;94553.31;6301601;22;20164;-76
2022/08/06 07:54:40;;;;;;;7.95;6.55;;;;;;;25.72;52.80;94554.84;6302585;22;20153;-76
2022/08/06 07:57:08;;;;;;;7.63;6.07;;;;;;;25.75;52.99;94548.91;6302754;22;20172;-77
2022/08/06 07:59:36;;;;;;;9.43;6.88;;;;;;;25.95;52.70;94543.69;6301876;22;20165;-76
2022/08/06 08:02:05;;;;;;;7.95;6.50;;;;;;;26.06;52.34;94546.81;6301203;22;20171;-76
2022/08/06 08:07:18;;;;;;;9.55;6.43;;;;;;;26.22;51.23;94547.13;6302182;22;20240;-76
2022/08/06 08:09:46;;;;;;;7.25;6.13;;;;;;;26.29;51.08;94542.09;6300710;22;20214;-77
2022/08/06 08:12:15;;;;;;;8.15;6.55;;;;;;;26.36;51.77;94542.34;6300854;22;20168;-76
2022/08/06 08:14:45;;;;;;;11.32;7.10;;;;;;;26.45;51.99;94546.56;6301810;22;20229;-76
2022/08/06 08:17:12;;;;;;;9.27;6.47;;;;;;;26.62;51.35;94543.03;6302498;22;20199;-76
2022/08/06 08:19:39;;;;;;;9.95;6.43;;;;;;;26.77;51.38;94553.16;6301811;22;20169;-76
2022/08/06 08:22:10;;;;;;;7.22;5.72;;;;;;;26.89;50.00;94552.50;6299601;22;20257;-75
2022/08/06 08:24:39;;;;;;;11.07;6.28;;;;;;;26.99;49.35;94544.13;6301486;22;20206;-76
2022/08/06 08:27:09;;;;;;;8.60;6.20;;;;;;;27.12;49.49;94550.31;6302118;22;20495;-75
2022/08/06 08:29:36;;;;;;;11.52;6.20;;;;;;;27.21;48.77;94543.84;6301377;22;20725;-76
2022/08/06 08:32:03;;;;;;;10.93;6.05;;;;;;;27.29;48.41;94550.22;6300468;22;20174;-76
2022/08/06 08:34:30;;;;;;;7.88;5.40;;;;;;;27.37;47.13;94544.03;6302032;22;20161;-76
2022/08/06 08:36:57;;;;;;;13.32;5.65;;;;;;;27.55;46.83;94543.59;6302143;22;20953;-76
2022/08/06 08:39:24;;;;;;;6.57;5.00;;;;;;;27.69;45.89;94548.66;6302566;22;20164;-76
2022/08/06 08:41:56;;;;;;;7.28;5.40;;;;;;;27.79;46.05;94553.63;6303733;22;20171;-76
2022/08/06 08:44:24;;;;;;;6.68;5.50;;;;;;;27.88;45.80;94554.28;6304168;22;20207;-76
2022/08/06 08:46:52;;;;;;;9.35;6.25;;;;;;;27.86;45.91;94551.19;6303704;22;20196;-76
2022/08/06 08:49:20;;;;;;;8.95;5.90;;;;;;;27.82;45.78;94549.50;6304791;22;20164;-77
2022/08/06 08:51:48;;;;;;;7.10;5.53;;;;;;;27.88;45.91;94542.84;6303071;22;20164;-77
2022/08/06 08:54:21;;;;;;;8.48;5.53;;;;;;;27.91;46.30;94539.50;6303826;22;20191;-77
2022/08/06 08:56:50;;;;;;;6.90;5.95;;;;;;;28.07;46.14;94537.78;6303911;22;20680;-76
2022/08/06 08:59:19;;;;;;;6.82;5.47;;;;;;;28.15;45.05;94545.72;6304088;22;20176;-76
2022/08/06 09:01:47;;;;;;;7.68;5.05;;;;;;;28.26;44.27;94535.38;6303350;22;20164;-76
2022/08/06 09:04:14;;;;;;;10.93;5.07;;;;;;;28.37;43.59;94539.19;6303599;22;20175;-76
2022/08/06 09:06:41;;;;;;;7.18;5.47;;;;;;;28.45;44.04;94537.53;6304193;22;20164;-76
2022/08/06 09:09:08;;;;;;;6.25;5.30;;;;;;;28.50;43.83;94540.00;6304199;22;20199;-75
2022/08/06 09:11:37;;;;;;;7.22;5.82;;;;;;;28.53;43.89;94529.41;6304028;22;20164;-76
2022/08/06 09:14:05;;;;;;;9.07;5.50;;;;;;;28.81;43.42;94531.44;6302572;22;20168;-76
2022/08/06 09:16:35;;;;;;;10.45;5.55;;;;;;;29.03;42.05;94539.00;6304676;22;20164;-75
2022/08/06 09:19:04;;;;;;;6.15;5.10;;;;;;;29.17;42.09;94532.19;6304117;22;20163;-76
2022/08/06 09:21:31;;;;;;;11.45;5.88;;;;;;;29.29;42.29;94536.78;6304170;22;20180;-76
2022/08/06 09:23:58;;;;;;;5.50;4.90;;;;;;;29.35;41.72;94532.72;6302749;22;20429;-76
2022/08/06 09:26:26;;;;;;;6.88;4.95;;;;;;;29.34;41.39;94539.22;6303125;22;20203;-76
2022/08/06 09:28:52;;;;;;;11.82;5.00;;;;;;;29.42;40.82;94529.47;6302984;22;20513;-76
2022/08/06 09:31:21;;;;;;;6.90;5.03;;;;;;;29.49;40.66;94517.06;6303582;22;20183;-76
2022/08/06 09:33:57;;;;;;;6.65;4.82;;;;;;;29.59;41.48;94521.16;6302660;22;20168;-77
2022/08/06 09:36:24;;;;;;;7.10;4.97;;;;;;;29.73;40.70;94519.63;6303760;22;20631;-77
2022/08/06 09:38:55;;;;;;;5.80;4.55;;;;;;;29.69;39.10;94526.81;6300036;22;20168;-76
2022/08/06 09:41:23;;;;;;;6.18;4.78;;;;;;;29.67;39.82;94522.91;6301058;22;20551;-76
2022/08/06 09:43:52;;;;;;;4.85;4.32;;;;;;;29.65;38.98;94522.47;6300017;22;20164;-76
2022/08/06 09:46:36;;;;;;;5.30;4.45;;;;;;;29.84;38.62;94528.03;6303073;22;20205;-76
2022/08/06 09:49:05;;;;;;;6.68;4.50;;;;;;;29.99;38.77;94529.94;6303246;22;20608;-77
2022/08/06 09:51:34;;;;;;;7.05;4.55;;;;;;;30.22;38.24;94527.47;6302589;22;20165;-75
2022/08/06 09:54:03;;;;;;;7.20;4.90;;;;;;;30.52;38.08;94525.19;6301788;22;20175;-76
2022/08/06 09:56:30;;;;;;;4.72;4.18;;;;;;;30.62;38.31;94525.41;6303724;22;20200;-76
2022/08/06 09:58:59;;;;;;;6.05;4.57;;;;;;;30.73;37.12;94533.75;6303671;22;20191;-76
2022/08/06 10:01:26;;;;;;;5.10;4.60;;;;;;;30.62;36.89;94524.66;6303975;22;20168;-76
2022/08/06 10:03:56;;;;;;;8.05;4.80;;;;;;;30.59;37.33;94528.78;6302119;22;20168;-76
2022/08/06 10:06:25;;;;;;;11.93;5.00;;;;;;;30.73;37.20;94523.78;6303241;22;20868;-76
2022/08/06 10:09:08;;;;;;;9.35;4.70;;;;;;;30.77;36.98;94519.25;6303420;22;20192;-76
2022/08/06 10:11:37;;;;;;;5.35;4.47;;;;;;;30.83;37.14;94512.50;6303918;22;20213;-76
2022/08/06 10:14:04;;;;;;;6.15;4.47;;;;;;;30.97;37.00;94512.06;6302193;22;20200;-76
2022/08/06 10:16:31;;;;;;;6.93;4.40;;;;;;;31.05;36.92;94521.88;6303918;22;20160;-76
2022/08/06 10:18:58;;;;;;;5.20;4.50;;;;;;;31.09;36.69;94520.03;6303916;22;20213;-76
2022/08/06 10:21:30;;;;;;;7.95;4.68;;;;;;;31.12;37.48;94513.16;6304123;22;20174;-76
2022/08/06 10:24:03;;;;;;;5.00;4.50;;;;;;;31.43;37.39;94516.53;6302122;22;20175;-76
2022/08/06 10:26:32;;;;;;;12.05;4.60;;;;;;;31.63;36.05;94514.66;6303853;22;20177;-76
2022/08/06 10:29:04;;;;;;;5.20;4.68;;;;;;;31.70;35.89;94514.78;6302937;22;20176;-76
2022/08/06 10:31:31;;;;;;;8.10;4.70;;;;;;;31.96;35.05;94514.91;6303227;22;20164;-76
2022/08/06 10:34:02;;;;;;;4.95;4.55;;;;;;;32.21;34.37;94511.94;6301393;22;20354;-76
2022/08/06 10:36:36;;;;;;;7.20;4.50;;;;;;;32.25;34.89;94515.44;6303870;22;20153;-76
2022/08/06 10:39:04;;;;;;;4.85;4.30;;;;;;;32.39;34.74;94513.78;6303763;22;20160;-77
2022/08/06 10:41:34;;;;;;;8.27;4.65;;;;;;;32.27;35.05;94515.88;6303136;22;20168;-76
2022/08/06 10:44:03;;;;;;;7.47;4.68;;;;;;;32.03;34.44;94516.22;6301681;22;20285;-77
2022/08/06 10:46:32;;;;;;;8.75;4.28;;;;;;;32.02;34.92;94510.06;6303262;22;20195;-76
2022/08/06 10:49:00;;;;;;;7.57;4.88;;;;;;;32.06;34.79;94512.81;6303630;22;20179;-76
2022/08/06 10:51:28;;;;;;;5.07;4.45;;;;;;;31.93;34.27;94507.56;6303749;22;20187;-77
2022/08/06 10:53:56;;;;;;;6.15;4.60;;;;;;;31.89;35.08;94504.00;6301498;22;20642;-76
2022/08/06 10:56:26;;;;;;;5.65;4.55;;;;;;;31.77;35.34;94504.19;6303048;22;20252;-76
2022/08/06 10:58:54;;;;;;;4.53;4.13;;;;;;;31.67;35.76;94502.06;6303086;22;20168;-77
2022/08/06 11:01:29;;;;;;;5.40;4.40;;;;;;;31.56;35.17;94503.75;6303112;22;20175;-77
2022/08/06 11:04:07;;;;;;;5.93;4.03;;;;;;;31.51;34.71;94501.38;6301100;22;20167;-77
2022/08/06 11:07:18;;;;;;;7.60;4.70;;;;;;;31.66;34.93;94507.81;6303144;22;20179;-76
2022/08/06 11:10:24;;;;;;;6.68;4.13;;;;;;;32.23;33.90;94505.06;6302393;22;20199;-76
2022/08/06 11:12:55;;;;;;;7.10;4.32;;;;;;;32.65;33.32;94498.84;6302587;22;20175;-77
2022/08/06 11:15:22;;;;;;;4.55;4.15;;;;;;;33.02;32.28;94491.69;6302946;22;20175;-75
2022/08/06 11:17:51;;;;;;;6.47;4.50;;;;;;;32.99;33.01;94492.41;6302079;22;20171;-77
2022/08/06 11:20:43;;;;;;;5.88;4.78;;;;;;;33.04;32.18;94494.81;6302966;22;20175;-76
2022/08/06 11:23:25;;;;;;;5.65;3.97;;;;;;;33.34;31.77;94500.22;6303153;22;20653;-77
2022/08/06 11:25:56;;;;;;;4.93;4.15;;;;;;;33.23;31.50;94500.09;6301598;22;20192;-76
2022/08/06 11:28:56;;;;;;;8.73;4.15;;;;;;;33.32;31.92;94495.22;6302972;22;20179;-77
2022/08/06 11:31:37;;;;;;;4.70;4.25;;;;;;;33.42;31.85;94491.88;6302619;22;20160;-76
2022/08/06 11:34:09;;;;;;;4.50;4.10;;;;;;;33.81;31.27;94489.66;6300846;22;20164;-76
2022/08/06 11:37:00;;;;;;;5.05;4.55;;;;;;;34.05;30.40;94486.47;6303012;22;20639;-77
2022/08/06 11:39:28;;;;;;;5.13;4.40;;;;;;;34.37;30.27;94492.19;6272547;22;20519;-76
2022/08/06 11:41:59;;;;;;;8.20;4.40;;;;;;;34.73;30.30;94495.97;6301138;22;20221;-76
2022/08/06 11:44:31;;;;;;;5.15;4.20;;;;;;;34.66;29.86;94496.69;6303145;22;20172;-76
2022/08/06 11:47:10;;;;;;;5.30;4.80;;;;;;;34.36;30.17;94493.31;6302026;22;20199;-76